sensor_id;sensor_type;location;lat;lon;timestamp;temperature;humidity
12604;DHT22;6367;52.508;13.284;2022-09-12T00:00:46;18.50;99.90
12604;DHT22;6367;52.508;13.284;2022-09-12T00:03:12;18.50;99.90
12604;DHT22;6367;52.508;13.284;2022-09-12T00:05:42;18.60;99.90
12604;DHT22;6367;52.508;13.284;2022-09-12T00:08:08;18.60;99.90
12604;DHT22;6367;52.508;13.284;2022-09-12T00:10:42;18.70;99.90
12604;DHT22;6367;52.508;13.284;2022-09-12T00:13:08;18.50;99.90
12604;DHT22;6367;52.508;13.284;2022-09-12T00:15:41;18.60;99.90
12604;DHT22;6367;52.508;13.284;2022-09-12T00:18:14;18.50;99.90
12604;DHT22;6367;52.508;13.284;2022-09-12T00:20:41;19.10;99.90
12604;DHT22;6367;52.508;13.284;2022-09-12T00:23:07;18.50;99.90
12604;DHT22;6367;52.508;13.284;2022-09-12T00:25:32;18.50;99.90
12604;DHT22;6367;52.508;13.284;2022-09-12T00:27:58;18.40;99.90
12604;DHT22;6367;52.508;13.284;2022-09-12T00:30:23;18.40;99.90
12604;DHT22;6367;52.508;13.284;2022-09-12T00:32:49;18.40;99.90
12604;DHT22;6367;52.508;13.284;2022-09-12T00:35:16;18.40;99.90
12604;DHT22;6367;52.508;13.284;2022-09-12T00:37:41;18.30;99.90
12604;DHT22;6367;52.508;13.284;2022-09-12T00:40:07;18.20;99.90
12604;DHT22;6367;52.508;13.284;2022-09-12T00:42:32;18.20;99.90
12604;DHT22;6367;52.508;13.284;2022-09-12T00:44:58;18.80;99.90
12604;DHT22;6367;52.508;13.284;2022-09-12T00:47:26;18.60;99.90
12604;DHT22;6367;52.508;13.284;2022-09-12T00:50:09;18.30;99.90
12604;DHT22;6367;52.508;13.284;2022-09-12T00:52:45;18.30;99.90
12604;DHT22;6367;52.508;13.284;2022-09-12T00:55:22;18.40;99.90
12604;DHT22;6367;52.508;13.284;2022-09-12T00:58:04;18.40;99.90
12604;DHT22;6367;52.508;13.284;2022-09-12T01:00:31;18.30;99.90
12604;DHT22;6367;52.508;13.284;2022-09-12T01:03:04;18.30;99.90
12604;DHT22;6367;52.508;13.284;2022-09-12T01:05:34;18.20;99.90
12604;DHT22;6367;52.508;13.284;2022-09-12T01:08:02;18.20;99.90
12604;DHT22;6367;52.508;13.284;2022-09-12T01:10:29;18.10;99.90
12604;DHT22;6367;52.508;13.284;2022-09-12T01:12:55;18.50;99.90
12604;DHT22;6367;52.508;13.284;2022-09-12T01:15:21;18.00;99.90
12604;DHT22;6367;52.508;13.284;2022-09-12T01:20:49;18.00;99.90
12604;DHT22;6367;52.508;13.284;2022-09-12T01:23:40;18.00;99.90
12604;DHT22;6367;52.508;13.284;2022-09-12T01:42:29;17.80;99.90
12604;DHT22;6367;52.508;13.284;2022-09-12T01:48:06;17.80;99.90
12604;DHT22;6367;52.508;13.284;2022-09-12T01:50:43;17.90;99.90
12604;DHT22;6367;52.508;13.284;2022-09-12T01:53:22;17.90;99.90
12604;DHT22;6367;52.508;13.284;2022-09-12T01:56:12;17.80;99.90
12604;DHT22;6367;52.508;13.284;2022-09-12T01:58:43;17.90;99.90
12604;DHT22;6367;52.508;13.284;2022-09-12T02:01:14;17.80;99.90
12604;DHT22;6367;52.508;13.284;2022-09-12T02:06:53;17.60;99.90
12604;DHT22;6367;52.508;13.284;2022-09-12T02:09:47;17.70;99.90
12604;DHT22;6367;52.508;13.284;2022-09-12T02:12:14;17.70;99.90
12604;DHT22;6367;52.508;13.284;2022-09-12T02:14:45;18.00;99.90
12604;DHT22;6367;52.508;13.284;2022-09-12T02:17:24;17.60;99.90
12604;DHT22;6367;52.508;13.284;2022-09-12T02:19:54;17.60;99.90
12604;DHT22;6367;52.508;13.284;2022-09-12T02:22:22;17.60;99.90
12604;DHT22;6367;52.508;13.284;2022-09-12T02:24:51;17.50;99.90
12604;DHT22;6367;52.508;13.284;2022-09-12T02:29:47;17.40;99.90
12604;DHT22;6367;52.508;13.284;2022-09-12T02:35:06;17.40;99.90
12604;DHT22;6367;52.508;13.284;2022-09-12T02:38:03;17.30;99.90
12604;DHT22;6367;52.508;13.284;2022-09-12T02:40:30;17.40;99.90
12604;DHT22;6367;52.508;13.284;2022-09-12T02:42:57;17.40;99.90
12604;DHT22;6367;52.508;13.284;2022-09-12T02:45:23;17.20;99.90
12604;DHT22;6367;52.508;13.284;2022-09-12T02:50:20;17.30;99.90
12604;DHT22;6367;52.508;13.284;2022-09-12T02:52:46;17.10;99.90
12604;DHT22;6367;52.508;13.284;2022-09-12T02:55:13;17.10;99.90
12604;DHT22;6367;52.508;13.284;2022-09-12T02:57:39;17.30;99.90
12604;DHT22;6367;52.508;13.284;2022-09-12T03:00:05;17.20;99.90
12604;DHT22;6367;52.508;13.284;2022-09-12T03:02:42;17.10;99.90
12604;DHT22;6367;52.508;13.284;2022-09-12T03:08:07;17.20;99.90
12604;DHT22;6367;52.508;13.284;2022-09-12T03:16:14;17.20;99.90
12604;DHT22;6367;52.508;13.284;2022-09-12T03:19:08;17.10;99.90
12604;DHT22;6367;52.508;13.284;2022-09-12T03:27:33;17.10;99.90
12604;DHT22;6367;52.508;13.284;2022-09-12T03:30:05;17.10;99.90
12604;DHT22;6367;52.508;13.284;2022-09-12T03:32:48;17.00;99.90
12604;DHT22;6367;52.508;13.284;2022-09-12T03:35:15;17.10;99.90
12604;DHT22;6367;52.508;13.284;2022-09-12T03:37:41;17.00;99.90
12604;DHT22;6367;52.508;13.284;2022-09-12T03:40:10;16.90;99.90
12604;DHT22;6367;52.508;13.284;2022-09-12T03:42:37;16.80;99.90
12604;DHT22;6367;52.508;13.284;2022-09-12T03:45:03;16.90;99.90
12604;DHT22;6367;52.508;13.284;2022-09-12T03:47:29;16.90;99.90
12604;DHT22;6367;52.508;13.284;2022-09-12T03:49:55;16.70;99.90
12604;DHT22;6367;52.508;13.284;2022-09-12T03:52:20;16.70;99.90
12604;DHT22;6367;52.508;13.284;2022-09-12T03:54:46;16.90;99.90
12604;DHT22;6367;52.508;13.284;2022-09-12T03:57:11;16.90;99.90
12604;DHT22;6367;52.508;13.284;2022-09-12T03:59:37;16.60;99.90
12604;DHT22;6367;52.508;13.284;2022-09-12T04:02:02;16.80;99.90
12604;DHT22;6367;52.508;13.284;2022-09-12T04:04:29;16.80;99.90
12604;DHT22;6367;52.508;13.284;2022-09-12T04:06:55;16.70;99.90
12604;DHT22;6367;52.508;13.284;2022-09-12T04:09:20;16.60;99.90
12604;DHT22;6367;52.508;13.284;2022-09-12T04:11:46;16.60;99.90
12604;DHT22;6367;52.508;13.284;2022-09-12T04:14:12;16.60;99.90
12604;DHT22;6367;52.508;13.284;2022-09-12T04:16:37;16.60;99.90
12604;DHT22;6367;52.508;13.284;2022-09-12T04:19:03;16.60;99.90
12604;DHT22;6367;52.508;13.284;2022-09-12T04:21:29;16.70;99.90
12604;DHT22;6367;52.508;13.284;2022-09-12T04:23:55;16.60;99.90
12604;DHT22;6367;52.508;13.284;2022-09-12T04:26:21;16.50;99.90
12604;DHT22;6367;52.508;13.284;2022-09-12T04:28:54;16.50;99.90
12604;DHT22;6367;52.508;13.284;2022-09-12T04:31:20;16.80;99.90
12604;DHT22;6367;52.508;13.284;2022-09-12T04:33:53;16.70;99.90
12604;DHT22;6367;52.508;13.284;2022-09-12T04:36:19;16.70;99.90
12604;DHT22;6367;52.508;13.284;2022-09-12T04:38:46;16.60;99.90
12604;DHT22;6367;52.508;13.284;2022-09-12T04:41:18;16.60;99.90
12604;DHT22;6367;52.508;13.284;2022-09-12T04:43:45;16.60;99.90
12604;DHT22;6367;52.508;13.284;2022-09-12T04:46:12;16.50;99.90
12604;DHT22;6367;52.508;13.284;2022-09-12T04:48:38;15.90;99.90
12604;DHT22;6367;52.508;13.284;2022-09-12T04:51:13;16.80;99.90
12604;DHT22;6367;52.508;13.284;2022-09-12T04:53:40;16.80;99.90
12604;DHT22;6367;52.508;13.284;2022-09-12T04:56:08;17.00;99.90
12604;DHT22;6367;52.508;13.284;2022-09-12T04:58:35;16.60;99.90
12604;DHT22;6367;52.508;13.284;2022-09-12T05:01:05;16.70;99.90
12604;DHT22;6367;52.508;13.284;2022-09-12T05:03:32;16.70;99.90
12604;DHT22;6367;52.508;13.284;2022-09-12T05:05:58;16.70;99.90
12604;DHT22;6367;52.508;13.284;2022-09-12T05:08:24;16.70;99.90
12604;DHT22;6367;52.508;13.284;2022-09-12T05:10:50;16.90;99.90
12604;DHT22;6367;52.508;13.284;2022-09-12T05:13:15;16.80;99.90
12604;DHT22;6367;52.508;13.284;2022-09-12T05:15:41;16.80;99.90
12604;DHT22;6367;52.508;13.284;2022-09-12T05:18:06;16.70;99.90
12604;DHT22;6367;52.508;13.284;2022-09-12T05:20:32;16.90;99.90
12604;DHT22;6367;52.508;13.284;2022-09-12T05:22:58;17.00;99.90
12604;DHT22;6367;52.508;13.284;2022-09-12T05:25:24;17.10;99.90
12604;DHT22;6367;52.508;13.284;2022-09-12T05:27:53;17.10;99.90
12604;DHT22;6367;52.508;13.284;2022-09-12T05:30:18;17.10;99.90
12604;DHT22;6367;52.508;13.284;2022-09-12T05:32:44;17.10;99.90
12604;DHT22;6367;52.508;13.284;2022-09-12T05:35:10;17.20;99.90
12604;DHT22;6367;52.508;13.284;2022-09-12T05:37:36;17.00;99.90
12604;DHT22;6367;52.508;13.284;2022-09-12T05:40:02;17.10;99.90
12604;DHT22;6367;52.508;13.284;2022-09-12T05:42:32;17.10;99.90
12604;DHT22;6367;52.508;13.284;2022-09-12T05:44:57;17.20;99.90
12604;DHT22;6367;52.508;13.284;2022-09-12T05:47:23;17.10;99.90
12604;DHT22;6367;52.508;13.284;2022-09-12T05:49:49;17.20;99.90
12604;DHT22;6367;52.508;13.284;2022-09-12T05:52:15;17.20;99.90
12604;DHT22;6367;52.508;13.284;2022-09-12T05:54:41;17.20;99.90
12604;DHT22;6367;52.508;13.284;2022-09-12T05:57:07;17.20;99.90
12604;DHT22;6367;52.508;13.284;2022-09-12T05:59:32;17.20;99.90
12604;DHT22;6367;52.508;13.284;2022-09-12T06:01:58;17.10;99.90
12604;DHT22;6367;52.508;13.284;2022-09-12T06:04:24;17.20;99.90
12604;DHT22;6367;52.508;13.284;2022-09-12T06:06:50;17.30;99.90
12604;DHT22;6367;52.508;13.284;2022-09-12T06:09:16;17.30;99.90
12604;DHT22;6367;52.508;13.284;2022-09-12T06:11:43;17.30;99.90
12604;DHT22;6367;52.508;13.284;2022-09-12T06:14:10;17.30;99.90
12604;DHT22;6367;52.508;13.284;2022-09-12T06:16:36;17.40;99.90
12604;DHT22;6367;52.508;13.284;2022-09-12T06:19:12;17.50;99.90
12604;DHT22;6367;52.508;13.284;2022-09-12T06:21:41;18.20;99.90
12604;DHT22;6367;52.508;13.284;2022-09-12T06:24:07;17.50;99.90
12604;DHT22;6367;52.508;13.284;2022-09-12T06:26:32;17.60;99.90
12604;DHT22;6367;52.508;13.284;2022-09-12T06:28:59;17.70;99.90
12604;DHT22;6367;52.508;13.284;2022-09-12T06:31:33;17.70;99.90
12604;DHT22;6367;52.508;13.284;2022-09-12T06:34:03;17.80;99.90
12604;DHT22;6367;52.508;13.284;2022-09-12T06:36:32;18.40;99.90
12604;DHT22;6367;52.508;13.284;2022-09-12T06:39:04;18.10;99.90
12604;DHT22;6367;52.508;13.284;2022-09-12T06:41:31;18.20;99.90
12604;DHT22;6367;52.508;13.284;2022-09-12T06:43:57;18.40;99.90
12604;DHT22;6367;52.508;13.284;2022-09-12T06:46:24;18.70;99.90
12604;DHT22;6367;52.508;13.284;2022-09-12T06:48:50;19.30;99.90
12604;DHT22;6367;52.508;13.284;2022-09-12T06:51:17;19.90;99.90
12604;DHT22;6367;52.508;13.284;2022-09-12T06:53:45;20.60;99.90
12604;DHT22;6367;52.508;13.284;2022-09-12T06:56:17;21.30;99.90
12604;DHT22;6367;52.508;13.284;2022-09-12T06:58:44;22.00;99.90
12604;DHT22;6367;52.508;13.284;2022-09-12T07:03:40;22.60;99.90
12604;DHT22;6367;52.508;13.284;2022-09-12T07:06:09;22.70;99.90
12604;DHT22;6367;52.508;13.284;2022-09-12T07:08:35;23.40;99.90
12604;DHT22;6367;52.508;13.284;2022-09-12T07:11:14;23.00;99.90
12604;DHT22;6367;52.508;13.284;2022-09-12T07:13:40;22.80;99.90
12604;DHT22;6367;52.508;13.284;2022-09-12T07:16:06;22.80;99.90
12604;DHT22;6367;52.508;13.284;2022-09-12T07:18:36;23.30;99.90
12604;DHT22;6367;52.508;13.284;2022-09-12T07:21:04;22.50;99.90
12604;DHT22;6367;52.508;13.284;2022-09-12T07:23:30;22.20;99.90
12604;DHT22;6367;52.508;13.284;2022-09-12T07:25:57;21.90;99.90
12604;DHT22;6367;52.508;13.284;2022-09-12T07:28:24;21.70;99.90
12604;DHT22;6367;52.508;13.284;2022-09-12T07:30:50;21.70;99.90
12604;DHT22;6367;52.508;13.284;2022-09-12T07:33:19;21.60;99.90
12604;DHT22;6367;52.508;13.284;2022-09-12T07:35:45;21.40;99.90
12604;DHT22;6367;52.508;13.284;2022-09-12T07:38:10;21.70;99.90
12604;DHT22;6367;52.508;13.284;2022-09-12T07:40:36;21.50;99.90
12604;DHT22;6367;52.508;13.284;2022-09-12T07:43:01;21.10;99.90
12604;DHT22;6367;52.508;13.284;2022-09-12T07:45:27;21.10;99.90
12604;DHT22;6367;52.508;13.284;2022-09-12T07:47:54;21.10;99.90
12604;DHT22;6367;52.508;13.284;2022-09-12T07:50:19;21.00;99.90
12604;DHT22;6367;52.508;13.284;2022-09-12T07:52:45;21.00;99.90
12604;DHT22;6367;52.508;13.284;2022-09-12T07:55:10;20.90;99.90
12604;DHT22;6367;52.508;13.284;2022-09-12T07:57:36;20.90;99.90
12604;DHT22;6367;52.508;13.284;2022-09-12T08:00:03;21.40;99.90
12604;DHT22;6367;52.508;13.284;2022-09-12T08:02:29;20.90;99.90
12604;DHT22;6367;52.508;13.284;2022-09-12T08:04:55;20.90;99.90
12604;DHT22;6367;52.508;13.284;2022-09-12T08:07:21;20.90;99.90
12604;DHT22;6367;52.508;13.284;2022-09-12T08:09:46;20.80;99.90
12604;DHT22;6367;52.508;13.284;2022-09-12T08:12:12;20.80;99.90
12604;DHT22;6367;52.508;13.284;2022-09-12T08:14:38;20.90;99.90
12604;DHT22;6367;52.508;13.284;2022-09-12T08:17:03;21.40;99.90
12604;DHT22;6367;52.508;13.284;2022-09-12T08:19:29;21.10;99.90
12604;DHT22;6367;52.508;13.284;2022-09-12T08:21:56;21.10;99.90
12604;DHT22;6367;52.508;13.284;2022-09-12T08:24:21;21.20;99.90
12604;DHT22;6367;52.508;13.284;2022-09-12T08:26:47;21.20;99.90
12604;DHT22;6367;52.508;13.284;2022-09-12T08:29:12;21.30;99.90
12604;DHT22;6367;52.508;13.284;2022-09-12T08:31:38;21.30;99.90
12604;DHT22;6367;52.508;13.284;2022-09-12T08:34:06;21.80;99.90
12604;DHT22;6367;52.508;13.284;2022-09-12T08:36:32;21.40;99.90
12604;DHT22;6367;52.508;13.284;2022-09-12T08:39:00;21.40;99.90
12604;DHT22;6367;52.508;13.284;2022-09-12T08:52:29;21.80;99.90
12604;DHT22;6367;52.508;13.284;2022-09-12T08:54:55;22.00;99.90
12604;DHT22;6367;52.508;13.284;2022-09-12T08:57:22;22.10;99.90
12604;DHT22;6367;52.508;13.284;2022-09-12T08:59:48;22.20;99.90
12604;DHT22;6367;52.508;13.284;2022-09-12T09:02:42;22.30;99.90
12604;DHT22;6367;52.508;13.284;2022-09-12T09:11:01;22.60;99.90
12604;DHT22;6367;52.508;13.284;2022-09-12T09:13:52;22.70;99.60
12604;DHT22;6367;52.508;13.284;2022-09-12T09:16:42;22.80;99.00
12604;DHT22;6367;52.508;13.284;2022-09-12T09:19:39;23.10;99.00
12604;DHT22;6367;52.508;13.284;2022-09-12T09:24:37;23.00;98.70
12604;DHT22;6367;52.508;13.284;2022-09-12T09:27:14;23.00;98.50
12604;DHT22;6367;52.508;13.284;2022-09-12T09:29:46;23.10;98.30
12604;DHT22;6367;52.508;13.284;2022-09-12T09:32:17;23.20;97.40
12604;DHT22;6367;52.508;13.284;2022-09-12T09:34:43;23.20;97.20
12604;DHT22;6367;52.508;13.284;2022-09-12T09:37:20;23.10;96.80
12604;DHT22;6367;52.508;13.284;2022-09-12T09:40:05;23.10;96.60
12604;DHT22;6367;52.508;13.284;2022-09-12T09:45:16;23.40;96.70
12604;DHT22;6367;52.508;13.284;2022-09-12T09:48:01;23.20;96.50
12604;DHT22;6367;52.508;13.284;2022-09-12T09:50:28;23.10;96.70
12604;DHT22;6367;52.508;13.284;2022-09-12T09:52:56;23.10;96.70
12604;DHT22;6367;52.508;13.284;2022-09-12T09:55:27;22.90;96.70
12604;DHT22;6367;52.508;13.284;2022-09-12T09:57:53;22.90;96.90
12604;DHT22;6367;52.508;13.284;2022-09-12T10:00:36;22.90;96.90
12604;DHT22;6367;52.508;13.284;2022-09-12T10:08:44;23.00;97.20
12604;DHT22;6367;52.508;13.284;2022-09-12T10:16:26;23.10;96.20
12604;DHT22;6367;52.508;13.284;2022-09-12T10:18:55;23.10;96.20
12604;DHT22;6367;52.508;13.284;2022-09-12T10:21:38;23.80;96.30
12604;DHT22;6367;52.508;13.284;2022-09-12T10:26:40;23.30;95.80
12604;DHT22;6367;52.508;13.284;2022-09-12T10:29:15;23.40;96.30
12604;DHT22;6367;52.508;13.284;2022-09-12T10:31:51;23.50;95.70
12604;DHT22;6367;52.508;13.284;2022-09-12T10:34:32;23.50;95.30
12604;DHT22;6367;52.508;13.284;2022-09-12T10:37:09;23.60;95.50
12604;DHT22;6367;52.508;13.284;2022-09-12T10:39:49;23.80;95.20
12604;DHT22;6367;52.508;13.284;2022-09-12T10:42:56;23.90;94.20
12604;DHT22;6367;52.508;13.284;2022-09-12T10:47:58;24.00;94.20
12604;DHT22;6367;52.508;13.284;2022-09-12T10:52:53;24.50;94.10
12604;DHT22;6367;52.508;13.284;2022-09-12T10:55:27;24.30;93.60
12604;DHT22;6367;52.508;13.284;2022-09-12T10:58:03;24.30;93.50
12604;DHT22;6367;52.508;13.284;2022-09-12T11:00:34;24.30;93.40
12604;DHT22;6367;52.508;13.284;2022-09-12T11:03:23;24.40;93.30
12604;DHT22;6367;52.508;13.284;2022-09-12T11:05:56;24.40;93.30
12604;DHT22;6367;52.508;13.284;2022-09-12T11:08:46;24.30;93.00
12604;DHT22;6367;52.508;13.284;2022-09-12T11:16:46;24.40;92.40
12604;DHT22;6367;52.508;13.284;2022-09-12T11:22:16;24.30;92.10
12604;DHT22;6367;52.508;13.284;2022-09-12T11:28:21;24.30;91.40
12604;DHT22;6367;52.508;13.284;2022-09-12T11:33:50;24.30;91.10
12604;DHT22;6367;52.508;13.284;2022-09-12T11:36:32;24.50;91.10
12604;DHT22;6367;52.508;13.284;2022-09-12T11:39:22;24.60;90.70
12604;DHT22;6367;52.508;13.284;2022-09-12T11:41:59;24.90;90.00
12604;DHT22;6367;52.508;13.284;2022-09-12T11:44:39;24.70;88.70
12604;DHT22;6367;52.508;13.284;2022-09-12T11:47:10;24.80;88.40
12604;DHT22;6367;52.508;13.284;2022-09-12T11:49:51;24.80;86.70
12604;DHT22;6367;52.508;13.284;2022-09-12T11:52:19;24.90;87.40
12604;DHT22;6367;52.508;13.284;2022-09-12T11:57:47;25.00;84.20
12604;DHT22;6367;52.508;13.284;2022-09-12T12:00:19;25.00;84.00
12604;DHT22;6367;52.508;13.284;2022-09-12T12:03:22;25.00;84.70
12604;DHT22;6367;52.508;13.284;2022-09-12T12:08:26;25.20;85.40
12604;DHT22;6367;52.508;13.284;2022-09-12T12:11:01;25.20;86.00
12604;DHT22;6367;52.508;13.284;2022-09-12T12:16:30;25.30;85.30
12604;DHT22;6367;52.508;13.284;2022-09-12T12:18:59;25.20;85.80
12604;DHT22;6367;52.508;13.284;2022-09-12T12:29:03;24.80;85.90
12604;DHT22;6367;52.508;13.284;2022-09-12T12:31:29;24.80;86.00
12604;DHT22;6367;52.508;13.284;2022-09-12T12:34:01;24.90;86.40
12604;DHT22;6367;52.508;13.284;2022-09-12T12:36:36;24.80;86.40
12604;DHT22;6367;52.508;13.284;2022-09-12T12:41:58;24.90;86.30
12604;DHT22;6367;52.508;13.284;2022-09-12T12:44:48;24.90;85.70
12604;DHT22;6367;52.508;13.284;2022-09-12T12:47:27;24.70;85.90
12604;DHT22;6367;52.508;13.284;2022-09-12T12:50:03;24.60;86.10
12604;DHT22;6367;52.508;13.284;2022-09-12T12:52:32;24.50;86.70
12604;DHT22;6367;52.508;13.284;2022-09-12T12:55:14;24.40;87.40
12604;DHT22;6367;52.508;13.284;2022-09-12T13:03:19;24.10;88.70
12604;DHT22;6367;52.508;13.284;2022-09-12T13:05:50;24.10;89.20
12604;DHT22;6367;52.508;13.284;2022-09-12T13:10:58;24.20;89.50
12604;DHT22;6367;52.508;13.284;2022-09-12T13:13:35;24.20;89.70
12604;DHT22;6367;52.508;13.284;2022-09-12T13:16:02;24.20;89.10
12604;DHT22;6367;52.508;13.284;2022-09-12T13:18:39;24.30;88.70
12604;DHT22;6367;52.508;13.284;2022-09-12T13:21:15;24.20;88.60
12604;DHT22;6367;52.508;13.284;2022-09-12T13:23:42;24.20;88.60
12604;DHT22;6367;52.508;13.284;2022-09-12T13:26:22;24.20;88.40
12604;DHT22;6367;52.508;13.284;2022-09-12T13:28:50;24.10;87.10
12604;DHT22;6367;52.508;13.284;2022-09-12T13:31:32;24.10;87.40
12604;DHT22;6367;52.508;13.284;2022-09-12T13:34:00;24.10;87.90
12604;DHT22;6367;52.508;13.284;2022-09-12T13:37:47;24.20;88.10
12604;DHT22;6367;52.508;13.284;2022-09-12T13:42:43;24.20;88.30
12604;DHT22;6367;52.508;13.284;2022-09-12T13:45:11;24.30;88.20
12604;DHT22;6367;52.508;13.284;2022-09-12T13:47:46;24.20;88.50
12604;DHT22;6367;52.508;13.284;2022-09-12T13:50:21;24.20;88.70
12604;DHT22;6367;52.508;13.284;2022-09-12T13:55:58;24.10;88.10
12604;DHT22;6367;52.508;13.284;2022-09-12T13:58:31;24.10;87.70
12604;DHT22;6367;52.508;13.284;2022-09-12T14:01:14;24.10;87.50
12604;DHT22;6367;52.508;13.284;2022-09-12T14:03:54;24.10;87.40
12604;DHT22;6367;52.508;13.284;2022-09-12T14:06:46;24.00;87.70
12604;DHT22;6367;52.508;13.284;2022-09-12T14:09:19;23.90;87.90
12604;DHT22;6367;52.508;13.284;2022-09-12T14:11:46;23.90;87.80
12604;DHT22;6367;52.508;13.284;2022-09-12T14:14:25;23.90;87.70
12604;DHT22;6367;52.508;13.284;2022-09-12T14:16:52;23.80;87.50
12604;DHT22;6367;52.508;13.284;2022-09-12T14:19:18;23.90;87.90
12604;DHT22;6367;52.508;13.284;2022-09-12T14:21:44;23.90;87.80
12604;DHT22;6367;52.508;13.284;2022-09-12T14:24:11;24.20;87.80
12604;DHT22;6367;52.508;13.284;2022-09-12T14:26:38;24.00;87.40
12604;DHT22;6367;52.508;13.284;2022-09-12T14:29:05;23.90;87.50
12604;DHT22;6367;52.508;13.284;2022-09-12T14:31:35;23.90;87.50
12604;DHT22;6367;52.508;13.284;2022-09-12T14:34:18;23.90;87.10
12604;DHT22;6367;52.508;13.284;2022-09-12T14:36:49;23.80;87.40
12604;DHT22;6367;52.508;13.284;2022-09-12T14:39:40;23.90;87.20
12604;DHT22;6367;52.508;13.284;2022-09-12T14:42:18;23.60;87.20
12604;DHT22;6367;52.508;13.284;2022-09-12T14:45:00;23.70;87.70
12604;DHT22;6367;52.508;13.284;2022-09-12T14:47:34;23.70;87.80
12604;DHT22;6367;52.508;13.284;2022-09-12T14:50:01;23.60;88.00
12604;DHT22;6367;52.508;13.284;2022-09-12T14:52:33;23.70;88.30
12604;DHT22;6367;52.508;13.284;2022-09-12T14:57:41;23.60;88.40
12604;DHT22;6367;52.508;13.284;2022-09-12T15:00:16;23.60;88.40
12604;DHT22;6367;52.508;13.284;2022-09-12T15:02:45;24.20;89.30
12604;DHT22;6367;52.508;13.284;2022-09-12T15:10:31;23.90;89.20
12604;DHT22;6367;52.508;13.284;2022-09-12T15:13:12;23.40;89.00
12604;DHT22;6367;52.508;13.284;2022-09-12T15:15:43;23.30;89.20
12604;DHT22;6367;52.508;13.284;2022-09-12T15:18:09;23.40;89.50
12604;DHT22;6367;52.508;13.284;2022-09-12T15:20:40;23.40;89.70
12604;DHT22;6367;52.508;13.284;2022-09-12T15:23:12;23.40;89.80
12604;DHT22;6367;52.508;13.284;2022-09-12T15:25:38;23.40;90.30
12604;DHT22;6367;52.508;13.284;2022-09-12T15:28:15;23.40;90.00
12604;DHT22;6367;52.508;13.284;2022-09-12T15:30:42;23.30;90.00
12604;DHT22;6367;52.508;13.284;2022-09-12T15:33:09;23.30;89.80
12604;DHT22;6367;52.508;13.284;2022-09-12T15:35:35;23.40;90.00
12604;DHT22;6367;52.508;13.284;2022-09-12T15:38:01;23.40;90.10
12604;DHT22;6367;52.508;13.284;2022-09-12T15:40:27;23.30;90.10
12604;DHT22;6367;52.508;13.284;2022-09-12T15:42:52;23.30;90.00
12604;DHT22;6367;52.508;13.284;2022-09-12T15:45:21;23.30;90.00
12604;DHT22;6367;52.508;13.284;2022-09-12T15:47:48;23.30;90.10
12604;DHT22;6367;52.508;13.284;2022-09-12T15:50:13;23.30;90.20
12604;DHT22;6367;52.508;13.284;2022-09-12T15:52:39;22.30;89.70
12604;DHT22;6367;52.508;13.284;2022-09-12T15:55:20;23.20;90.30
12604;DHT22;6367;52.508;13.284;2022-09-12T15:57:46;23.10;90.20
12604;DHT22;6367;52.508;13.284;2022-09-12T16:00:13;23.10;90.30
12604;DHT22;6367;52.508;13.284;2022-09-12T16:02:39;23.10;90.30
12604;DHT22;6367;52.508;13.284;2022-09-12T16:05:05;23.40;90.50
12604;DHT22;6367;52.508;13.284;2022-09-12T16:07:35;23.10;90.30
12604;DHT22;6367;52.508;13.284;2022-09-12T16:10:00;23.70;90.60
12604;DHT22;6367;52.508;13.284;2022-09-12T16:12:26;23.00;90.30
12604;DHT22;6367;52.508;13.284;2022-09-12T16:14:51;23.10;90.40
12604;DHT22;6367;52.508;13.284;2022-09-12T16:17:17;23.10;90.50
12604;DHT22;6367;52.508;13.284;2022-09-12T16:19:43;23.10;90.60
12604;DHT22;6367;52.508;13.284;2022-09-12T16:22:08;23.00;90.60
12604;DHT22;6367;52.508;13.284;2022-09-12T16:24:34;23.00;90.70
12604;DHT22;6367;52.508;13.284;2022-09-12T16:26:59;23.60;91.10
12604;DHT22;6367;52.508;13.284;2022-09-12T16:29:25;23.00;90.80
12604;DHT22;6367;52.508;13.284;2022-09-12T16:31:51;22.90;90.80
12604;DHT22;6367;52.508;13.284;2022-09-12T16:34:16;22.90;91.20
12604;DHT22;6367;52.508;13.284;2022-09-12T16:36:42;22.90;90.90
12604;DHT22;6367;52.508;13.284;2022-09-12T16:39:09;22.80;90.80
12604;DHT22;6367;52.508;13.284;2022-09-12T16:41:35;22.90;91.00
12604;DHT22;6367;52.508;13.284;2022-09-12T16:44:01;22.70;91.00
12604;DHT22;6367;52.508;13.284;2022-09-12T16:46:27;22.70;91.10
12604;DHT22;6367;52.508;13.284;2022-09-12T16:48:56;22.70;91.20
12604;DHT22;6367;52.508;13.284;2022-09-12T16:51:25;23.10;91.40
12604;DHT22;6367;52.508;13.284;2022-09-12T16:53:52;22.60;90.90
12604;DHT22;6367;52.508;13.284;2022-09-12T16:56:18;22.60;91.30
12604;DHT22;6367;52.508;13.284;2022-09-12T16:58:44;22.60;91.30
12604;DHT22;6367;52.508;13.284;2022-09-12T17:01:29;22.40;91.00
12604;DHT22;6367;52.508;13.284;2022-09-12T17:03:57;22.60;91.40
12604;DHT22;6367;52.508;13.284;2022-09-12T17:06:26;22.30;91.80
12604;DHT22;6367;52.508;13.284;2022-09-12T17:08:53;22.30;91.80
12604;DHT22;6367;52.508;13.284;2022-09-12T17:11:30;22.50;91.80
12604;DHT22;6367;52.508;13.284;2022-09-12T17:13:58;22.50;91.70
12604;DHT22;6367;52.508;13.284;2022-09-12T17:16:24;22.50;91.70
12604;DHT22;6367;52.508;13.284;2022-09-12T17:18:51;22.50;91.80
12604;DHT22;6367;52.508;13.284;2022-09-12T17:21:18;22.40;91.80
12604;DHT22;6367;52.508;13.284;2022-09-12T17:23:44;22.40;91.90
12604;DHT22;6367;52.508;13.284;2022-09-12T17:26:10;22.40;91.90
12604;DHT22;6367;52.508;13.284;2022-09-12T17:28:36;22.40;92.00
12604;DHT22;6367;52.508;13.284;2022-09-12T17:31:06;22.30;92.10
12604;DHT22;6367;52.508;13.284;2022-09-12T17:33:33;22.40;92.20
12604;DHT22;6367;52.508;13.284;2022-09-12T17:36:10;22.60;92.40
12604;DHT22;6367;52.508;13.284;2022-09-12T17:38:37;22.20;92.30
12604;DHT22;6367;52.508;13.284;2022-09-12T17:41:06;22.20;92.40
12604;DHT22;6367;52.508;13.284;2022-09-12T17:43:32;22.20;92.40
12604;DHT22;6367;52.508;13.284;2022-09-12T17:45:57;22.20;92.50
12604;DHT22;6367;52.508;13.284;2022-09-12T17:48:23;22.20;92.50
12604;DHT22;6367;52.508;13.284;2022-09-12T17:50:49;22.20;92.50
12604;DHT22;6367;52.508;13.284;2022-09-12T17:53:15;22.20;92.60
12604;DHT22;6367;52.508;13.284;2022-09-12T17:55:42;22.10;92.60
12604;DHT22;6367;52.508;13.284;2022-09-12T17:58:07;22.10;92.60
12604;DHT22;6367;52.508;13.284;2022-09-12T18:00:34;22.10;92.70
12604;DHT22;6367;52.508;13.284;2022-09-12T18:03:20;22.60;93.00
12604;DHT22;6367;52.508;13.284;2022-09-12T18:05:50;22.00;92.80
12604;DHT22;6367;52.508;13.284;2022-09-12T18:08:17;22.00;92.80
12604;DHT22;6367;52.508;13.284;2022-09-12T18:10:43;22.00;92.80
12604;DHT22;6367;52.508;13.284;2022-09-12T18:13:09;22.40;93.20
12604;DHT22;6367;52.508;13.284;2022-09-12T18:15:35;22.00;93.00